Time;durP1;ratioP1;P1;durP2;ratioP2;P2;SDS_P1;SDS_P2;PMS_P1;PMS_P2;Temp;Humidity;BMP_temperature;BMP_pressure;BME280_temperature;BME280_humidity;BME280_pressure;Samples;Min_cycle;Max_cycle;Signal;HPM_P1;HPM_P2
2021/10/29 00:00:11;;;;;;;3.55;2.25;;;;;;;;;;5070961;28;20064;-77
2021/10/29 00:02:38;;;;;;;3.83;2.28;;;;;;;;;;5070956;28;20064;-77
2021/10/29 00:05:05;;;;;;;5.22;2.65;;;;;;;;;;5066138;28;20067;-76
2021/10/29 00:07:31;;;;;;;3.80;2.17;;;;;;;;;;5059207;28;20500;-77
2021/10/29 00:09:58;;;;;;;3.30;2.00;;;;;;;;;;5058259;28;20556;-77
2021/10/29 00:12:25;;;;;;;3.17;2.15;;;;;;;;;;5064781;28;20129;-77
2021/10/29 00:14:52;;;;;;;2.90;1.92;;;;;;;;;;5068590;28;20083;-77
2021/10/29 00:17:19;;;;;;;4.78;2.38;;;;;;;;;;5056351;28;20461;-78
2021/10/29 00:19:45;;;;;;;3.40;2.00;;;;;;;;;;5060602;28;20417;-77
2021/10/29 00:22:12;;;;;;;3.72;2.25;;;;;;;;;;5066088;28;20075;-78
2021/10/29 00:24:38;;;;;;;3.10;2.00;;;;;;;;;;5065793;28;20109;-78
2021/10/29 00:27:05;;;;;;;3.60;2.25;;;;;;;;;;5067722;28;20064;-77
2021/10/29 00:29:31;;;;;;;3.50;2.45;;;;;;;;;;5062765;28;20057;-77
2021/10/29 00:31:58;;;;;;;3.65;2.30;;;;;;;;;;5060004;28;20440;-77
2021/10/29 00:34:24;;;;;;;3.10;1.98;;;;;;;;;;5058689;28;20067;-77
2021/10/29 00:36:51;;;;;;;3.42;1.83;;;;;;;;;;5066228;28;20067;-77
2021/10/29 00:39:19;;;;;;;3.88;2.15;;;;;;;;;;5066037;28;20068;-76
2021/10/29 00:41:46;;;;;;;3.95;2.05;;;;;;;;;;5062734;28;20519;-76
2021/10/29 00:44:12;;;;;;;3.15;2.15;;;;;;;;;;5063584;28;20072;-77
2021/10/29 00:46:39;;;;;;;5.03;2.38;;;;;;;;;;5065104;28;20063;-77
2021/10/29 00:49:05;;;;;;;3.67;2.47;;;;;;;;;;5071239;28;20056;-77
2021/10/29 00:51:32;;;;;;;5.15;2.15;;;;;;;;;;5055615;28;20069;-77
2021/10/29 00:53:58;;;;;;;4.10;2.50;;;;;;;;;;5066992;28;20059;-78
2021/10/29 00:56:26;;;;;;;3.50;2.10;;;;;;;;;;5070691;28;20452;-77
2021/10/29 00:58:52;;;;;;;3.67;2.10;;;;;;;;;;5072895;28;20060;-77
2021/10/29 01:01:18;;;;;;;4.75;2.38;;;;;;;;;;5069594;28;20452;-76
2021/10/29 01:03:45;;;;;;;3.55;2.28;;;;;;;;;;5053120;28;20072;-77
2021/10/29 01:06:11;;;;;;;3.90;2.30;;;;;;;;;;5066650;28;20064;-77
2021/10/29 01:08:38;;;;;;;3.78;2.00;;;;;;;;;;5064186;28;20058;-77
2021/10/29 01:11:05;;;;;;;3.47;2.10;;;;;;;;;;5066197;28;20469;-74
2021/10/29 01:13:32;;;;;;;3.20;2.03;;;;;;;;;;5060384;28;20048;-76
2021/10/29 01:15:59;;;;;;;4.18;2.30;;;;;;;;;;5066015;28;20068;-77
2021/10/29 01:18:25;;;;;;;3.83;2.38;;;;;;;;;;5066220;28;20068;-76
2021/10/29 01:20:51;;;;;;;4.30;2.33;;;;;;;;;;5071336;28;20063;-77
2021/10/29 01:23:18;;;;;;;5.35;2.28;;;;;;;;;;5064465;28;20075;-77
2021/10/29 01:25:44;;;;;;;2.90;1.95;;;;;;;;;;5068195;28;20064;-77
2021/10/29 01:28:11;;;;;;;4.55;2.00;;;;;;;;;;5067802;28;20601;-77
2021/10/29 01:30:38;;;;;;;2.58;1.88;;;;;;;;;;5066995;28;20083;-77
2021/10/29 01:33:04;;;;;;;3.30;2.10;;;;;;;;;;5063918;28;20062;-77
2021/10/29 01:35:31;;;;;;;3.25;2.13;;;;;;;;;;5065628;28;20059;-76
2021/10/29 01:37:58;;;;;;;3.75;2.13;;;;;;;;;;5066909;28;20083;-77
2021/10/29 01:40:24;;;;;;;3.67;2.20;;;;;;;;;;5063613;28;20075;-76
2021/10/29 01:42:51;;;;;;;4.30;2.33;;;;;;;;;;5063731;28;20064;-78
2021/10/29 01:45:17;;;;;;;3.35;2.30;;;;;;;;;;5061808;28;20531;-77
2021/10/29 01:47:45;;;;;;;3.95;2.13;;;;;;;;;;5067357;28;20099;-77
2021/10/29 01:50:11;;;;;;;3.00;2.10;;;;;;;;;;5058197;28;20082;-78
2021/10/29 01:52:38;;;;;;;3.90;2.10;;;;;;;;;;5064349;28;20033;-77
2021/10/29 01:55:06;;;;;;;2.85;2.10;;;;;;;;;;5063147;28;20063;-77
2021/10/29 01:57:33;;;;;;;3.15;2.17;;;;;;;;;;5065596;28;20068;-77
2021/10/29 01:59:59;;;;;;;3.88;2.38;;;;;;;;;;5060796;28;20059;-77
2021/10/29 02:02:26;;;;;;;2.55;1.98;;;;;;;;;;5066480;28;20052;-76
2021/10/29 02:04:52;;;;;;;3.63;2.03;;;;;;;;;;5066248;28;20456;-76
2021/10/29 02:07:19;;;;;;;3.30;1.98;;;;;;;;;;5067812;28;20052;-76
2021/10/29 02:09:45;;;;;;;3.80;2.40;;;;;;;;;;5069243;28;20067;-76
2021/10/29 02:12:11;;;;;;;3.72;2.20;;;;;;;;;;5073767;28;20443;-76
2021/10/29 02:14:38;;;;;;;2.78;1.98;;;;;;;;;;5055307;28;20460;-76
2021/10/29 02:17:04;;;;;;;3.78;2.10;;;;;;;;;;5070439;28;20056;-76
2021/10/29 02:19:31;;;;;;;4.05;2.40;;;;;;;;;;5068542;28;20509;-77
2021/10/29 02:21:58;;;;;;;3.40;2.30;;;;;;;;;;5067123;28;20056;-77
2021/10/29 02:24:24;;;;;;;2.97;2.28;;;;;;;;;;5068779;28;20053;-77
2021/10/29 02:26:51;;;;;;;2.80;2.00;;;;;;;;;;5066763;28;20052;-77
2021/10/29 02:29:17;;;;;;;2.97;2.10;;;;;;;;;;5067668;28;20063;-77
2021/10/29 02:31:43;;;;;;;3.17;2.08;;;;;;;;;;5072726;28;20518;-77
2021/10/29 02:34:10;;;;;;;3.00;2.17;;;;;;;;;;5065382;28;20072;-78
2021/10/29 02:36:36;;;;;;;3.45;2.35;;;;;;;;;;5069136;28;20100;-77
2021/10/29 02:39:03;;;;;;;3.05;2.20;;;;;;;;;;5065409;28;20072;-76
2021/10/29 02:41:30;;;;;;;3.17;2.00;;;;;;;;;;5068017;28;20056;-76
2021/10/29 02:43:56;;;;;;;4.68;2.22;;;;;;;;;;5069383;28;20071;-77
2021/10/29 02:46:23;;;;;;;3.38;2.10;;;;;;;;;;5067678;28;20744;-77
2021/10/29 02:48:50;;;;;;;3.42;2.10;;;;;;;;;;5067202;28;20036;-76
2021/10/29 02:51:17;;;;;;;3.10;1.83;;;;;;;;;;5061653;28;20064;-77
2021/10/29 02:53:43;;;;;;;2.22;1.88;;;;;;;;;;5069154;28;20063;-77
2021/10/29 02:56:10;;;;;;;3.13;2.10;;;;;;;;;;5070107;28;20087;-77
2021/10/29 02:58:37;;;;;;;2.97;1.88;;;;;;;;;;5068154;28;20091;-77
2021/10/29 03:01:04;;;;;;;2.80;2.13;;;;;;;;;;5061324;28;20060;-77
2021/10/29 03:03:31;;;;;;;3.42;2.28;;;;;;;;;;5068420;28;20074;-77
2021/10/29 03:05:57;;;;;;;3.33;2.08;;;;;;;;;;5068061;28;20064;-76
2021/10/29 03:08:24;;;;;;;3.15;1.80;;;;;;;;;;5064402;28;20059;-77
2021/10/29 03:10:50;;;;;;;3.53;2.10;;;;;;;;;;5068819;28;20516;-77
2021/10/29 03:13:17;;;;;;;3.40;2.17;;;;;;;;;;5064521;28;20079;-77
2021/10/29 03:15:44;;;;;;;3.85;2.53;;;;;;;;;;5069445;28;20086;-77
2021/10/29 03:18:10;;;;;;;3.10;2.13;;;;;;;;;;5049515;28;20084;-77
2021/10/29 03:20:37;;;;;;;4.38;2.30;;;;;;;;;;5066669;28;20140;-76
2021/10/29 03:23:03;;;;;;;3.05;2.35;;;;;;;;;;5049766;28;20060;-76
2021/10/29 03:25:29;;;;;;;3.60;1.98;;;;;;;;;;5067669;28;20056;-76
2021/10/29 03:27:56;;;;;;;3.13;2.30;;;;;;;;;;5063419;28;20421;-76
2021/10/29 03:30:22;;;;;;;4.68;2.58;;;;;;;;;;5057470;28;20485;-76
2021/10/29 03:32:49;;;;;;;3.15;2.13;;;;;;;;;;5060968;28;20044;-77
2021/10/29 03:35:15;;;;;;;2.83;2.03;;;;;;;;;;5050266;28;20111;-78
2021/10/29 03:43:17;;;;;;;3.45;1.80;;;;;;;;;;5055716;28;20036;-80
2021/10/29 03:48:12;;;;;;;3.42;2.17;;;;;;;;;;5059833;28;20064;-78
2021/10/29 03:50:42;;;;;;;3.10;2.20;;;;;;;;;;5053937;28;20056;-78
2021/10/29 03:53:23;;;;;;;3.75;2.17;;;;;;;;;;5059116;28;20060;-78
2021/10/29 03:55:53;;;;;;;4.32;2.20;;;;;;;;;;5055386;28;20434;-77
2021/10/29 03:58:19;;;;;;;2.78;1.90;;;;;;;;;;5054416;28;20110;-78
2021/10/29 04:00:46;;;;;;;3.40;2.22;;;;;;;;;;5059725;28;20369;-77
2021/10/29 04:03:14;;;;;;;3.72;2.40;;;;;;;;;;5062257;28;20064;-77
2021/10/29 04:05:40;;;;;;;3.22;2.20;;;;;;;;;;5057275;28;20069;-78
2021/10/29 04:08:07;;;;;;;2.92;1.95;;;;;;;;;;5057491;28;20056;-77
2021/10/29 04:10:33;;;;;;;2.97;2.05;;;;;;;;;;5057606;28;20082;-77
2021/10/29 04:13:02;;;;;;;2.80;2.05;;;;;;;;;;5060175;28;20113;-77
2021/10/29 04:15:29;;;;;;;2.95;1.80;;;;;;;;;;5042583;28;20089;-77
2021/10/29 04:17:58;;;;;;;3.42;1.95;;;;;;;;;;5058482;28;20103;-77
2021/10/29 04:20:25;;;;;;;2.83;2.00;;;;;;;;;;5064400;28;20520;-77
2021/10/29 04:22:52;;;;;;;3.63;2.20;;;;;;;;;;5062394;28;20056;-77
2021/10/29 04:25:19;;;;;;;3.50;2.03;;;;;;;;;;5057070;28;20064;-77
2021/10/29 04:27:49;;;;;;;3.85;2.28;;;;;;;;;;5060955;28;20056;-78
2021/10/29 04:30:18;;;;;;;2.92;2.08;;;;;;;;;;5055255;28;20053;-77
2021/10/29 04:32:45;;;;;;;3.63;2.22;;;;;;;;;;5062984;28;20089;-78
2021/10/29 04:35:11;;;;;;;3.50;2.10;;;;;;;;;;5063941;28;20090;-78
2021/10/29 04:37:39;;;;;;;2.97;2.05;;;;;;;;;;5061291;28;20094;-78
2021/10/29 04:40:06;;;;;;;2.65;1.98;;;;;;;;;;5056488;28;20060;-77
2021/10/29 04:42:33;;;;;;;3.78;2.35;;;;;;;;;;5063292;28;20039;-77
2021/10/29 04:44:59;;;;;;;2.80;1.85;;;;;;;;;;5059555;28;20496;-78
2021/10/29 04:47:26;;;;;;;3.42;2.42;;;;;;;;;;5063384;28;20507;-77
2021/10/29 04:49:52;;;;;;;2.92;2.33;;;;;;;;;;5061869;28;20060;-78
2021/10/29 04:52:18;;;;;;;3.30;2.17;;;;;;;;;;5065430;28;20068;-78
2021/10/29 04:54:45;;;;;;;3.40;2.30;;;;;;;;;;5063216;28;20212;-78
2021/10/29 04:57:11;;;;;;;3.63;2.35;;;;;;;;;;5066402;28;20510;-78
2021/10/29 04:59:37;;;;;;;2.92;2.13;;;;;;;;;;5062522;28;20056;-79
2021/10/29 05:02:04;;;;;;;3.03;2.30;;;;;;;;;;5064358;28;20057;-78
2021/10/29 05:04:30;;;;;;;4.75;2.40;;;;;;;;;;5052917;28;20076;-78
2021/10/29 05:06:57;;;;;;;3.75;2.55;;;;;;;;;;5063764;28;20064;-77
2021/10/29 05:09:23;;;;;;;3.33;2.22;;;;;;;;;;5064290;28;20071;-78
2021/10/29 05:11:50;;;;;;;3.25;2.30;;;;;;;;;;5059267;28;20060;-77
2021/10/29 05:14:22;;;;;;;4.00;2.45;;;;;;;;;;5060846;28;20048;-78
2021/10/29 05:16:50;;;;;;;5.38;2.40;;;;;;;;;;5056563;28;20093;-77
2021/10/29 05:19:17;;;;;;;3.75;2.38;;;;;;;;;;5059712;28;20084;-78
2021/10/29 05:21:43;;;;;;;5.65;2.80;;;;;;;;;;5064520;28;20512;-77
2021/10/29 05:24:10;;;;;;;3.70;2.38;;;;;;;;;;5056417;28;20503;-79
2021/10/29 05:26:37;;;;;;;3.55;2.25;;;;;;;;;;5067933;28;20669;-78
2021/10/29 05:29:04;;;;;;;3.78;2.53;;;;;;;;;;5067678;28;20569;-77
2021/10/29 05:31:30;;;;;;;3.70;2.67;;;;;;;;;;5065148;28;20057;-77
2021/10/29 05:33:57;;;;;;;3.20;2.25;;;;;;;;;;5064268;28;20060;-77
2021/10/29 05:36:23;;;;;;;2.92;2.22;;;;;;;;;;5060648;28;20064;-77
2021/10/29 05:38:50;;;;;;;3.13;2.20;;;;;;;;;;5065757;28;20071;-77
2021/10/29 05:41:17;;;;;;;2.67;2.25;;;;;;;;;;5061680;28;20554;-77
2021/10/29 05:43:44;;;;;;;3.83;2.50;;;;;;;;;;5068515;28;20068;-77
2021/10/29 05:46:10;;;;;;;4.85;2.75;;;;;;;;;;5070363;28;20510;-79
2021/10/29 05:48:40;;;;;;;3.42;2.33;;;;;;;;;;5062455;28;20075;-77
2021/10/29 05:51:10;;;;;;;3.03;2.40;;;;;;;;;;5068363;28;20512;-78
2021/10/29 05:53:50;;;;;;;2.50;2.10;;;;;;;;;;5063759;28;22366;-77
2021/10/29 05:56:19;;;;;;;3.83;2.47;;;;;;;;;;5068463;28;20068;-79
2021/10/29 05:58:45;;;;;;;3.88;2.35;;;;;;;;;;5067710;28;20113;-78
2021/10/29 06:01:12;;;;;;;3.85;2.40;;;;;;;;;;5072164;28;20639;-79
2021/10/29 06:03:38;;;;;;;3.08;2.50;;;;;;;;;;5074163;28;20060;-79
2021/10/29 06:06:05;;;;;;;3.20;2.03;;;;;;;;;;5061614;28;20056;-77
2021/10/29 06:08:31;;;;;;;4.13;2.42;;;;;;;;;;5066033;28;20041;-78
2021/10/29 06:10:58;;;;;;;2.95;2.28;;;;;;;;;;5065730;28;20487;-78
2021/10/29 06:13:24;;;;;;;5.50;2.55;;;;;;;;;;5058169;28;20683;-76
2021/10/29 06:15:51;;;;;;;4.57;2.33;;;;;;;;;;5060805;28;20061;-76
2021/10/29 06:18:24;;;;;;;4.10;2.25;;;;;;;;;;5064974;28;20080;-76
2021/10/29 06:20:51;;;;;;;2.95;2.13;;;;;;;;;;5061418;28;20064;-76
2021/10/29 06:23:21;;;;;;;3.42;2.30;;;;;;;;;;5056218;28;20077;-76
2021/10/29 06:25:48;;;;;;;3.10;2.10;;;;;;;;;;5060827;28;20070;-76
2021/10/29 06:28:33;;;;;;;4.35;2.20;;;;;;;;;;5059141;28;20080;-76
2021/10/29 06:30:59;;;;;;;3.83;2.55;;;;;;;;;;5063545;28;20185;-76
2021/10/29 06:33:26;;;;;;;3.08;2.30;;;;;;;;;;5069372;28;20064;-76
2021/10/29 06:35:53;;;;;;;5.05;2.20;;;;;;;;;;5075559;28;20132;-75
2021/10/29 06:38:19;;;;;;;3.38;2.28;;;;;;;;;;5068885;28;20056;-76
2021/10/29 06:40:48;;;;;;;3.45;2.33;;;;;;;;;;5072468;28;20113;-76
2021/10/29 06:43:29;;;;;;;3.35;2.33;;;;;;;;;;5070237;28;20063;-76
2021/10/29 06:48:50;;;;;;;3.58;2.38;;;;;;;;;;5070560;28;19966;-76
2021/10/29 06:59:30;;;;;;;3.13;1.95;;;;;;;;;;5068228;28;20106;-76
2021/10/29 07:39:59;;;;;;;2.88;2.15;;;;;;;;;;5062189;28;20635;-77
2021/10/29 07:40:12;;;;;;;5.63;2.53;;;;;;;;;;5063249;28;20087;-77
2021/10/29 07:42:59;;;;;;;2.83;2.25;;;;;;;;;;5062779;28;20064;-77
2021/10/29 07:45:27;;;;;;;3.35;2.20;;;;;;;;;;5063906;28;20052;-77
2021/10/29 07:47:55;;;;;;;3.50;2.33;;;;;;;;;;5062214;28;20082;-77
2021/10/29 07:50:22;;;;;;;3.47;2.40;;;;;;;;;;5063112;28;20225;-77
2021/10/29 07:52:49;;;;;;;3.35;2.50;;;;;;;;;;5059023;28;20102;-77
2021/10/29 07:55:17;;;;;;;3.10;2.28;;;;;;;;;;5063829;28;20554;-77
2021/10/29 07:57:47;;;;;;;3.35;2.20;;;;;;;;;;5061332;28;20122;-78
2021/10/29 08:00:15;;;;;;;3.28;2.20;;;;;;;;;;5062418;28;20490;-77
2021/10/29 08:02:41;;;;;;;4.28;2.33;;;;;;;;;;5062602;28;20594;-77
2021/10/29 08:05:08;;;;;;;3.97;2.30;;;;;;;;;;5058621;28;20121;-77
2021/10/29 08:07:34;;;;;;;2.72;2.25;;;;;;;;;;5067013;28;20063;-78
2021/10/29 08:10:03;;;;;;;2.58;1.90;;;;;;;;;;5072627;28;20070;-78
2021/10/29 08:12:30;;;;;;;4.22;2.10;;;;;;;;;;5064427;28;20441;-78
2021/10/29 08:14:57;;;;;;;2.83;2.17;;;;;;;;;;5064887;28;20608;-77
2021/10/29 08:17:23;;;;;;;3.45;2.10;;;;;;;;;;5061117;28;20469;-78
2021/10/29 08:19:50;;;;;;;3.35;2.38;;;;;;;;;;5064788;28;20070;-77
2021/10/29 08:22:17;;;;;;;3.25;2.13;;;;;;;;;;5067143;28;20102;-77
2021/10/29 08:24:44;;;;;;;2.58;1.95;;;;;;;;;;5069416;28;20075;-78
2021/10/29 08:27:11;;;;;;;3.85;2.65;;;;;;;;;;5066490;28;20059;-78
2021/10/29 08:29:38;;;;;;;3.00;2.28;;;;;;;;;;5071854;28;21098;-78
2021/10/29 08:32:05;;;;;;;3.05;2.20;;;;;;;;;;5069949;28;20044;-77
2021/10/29 08:34:32;;;;;;;4.18;2.50;;;;;;;;;;5066933;28;20072;-77
2021/10/29 08:36:59;;;;;;;3.58;2.20;;;;;;;;;;5061309;28;20056;-77
2021/10/29 08:39:26;;;;;;;2.85;2.10;;;;;;;;;;5057811;28;20562;-78
2021/10/29 08:41:52;;;;;;;3.05;2.13;;;;;;;;;;5056759;28;20064;-77
2021/10/29 08:44:19;;;;;;;3.63;2.45;;;;;;;;;;5058182;28;20082;-78
2021/10/29 08:46:45;;;;;;;3.50;2.40;;;;;;;;;;5060356;28;20061;-76
2021/10/29 08:49:13;;;;;;;3.33;2.13;;;;;;;;;;5060035;28;20071;-77
2021/10/29 08:51:40;;;;;;;3.00;2.13;;;;;;;;;;5061803;28;20169;-78
2021/10/29 08:54:07;;;;;;;3.30;2.50;;;;;;;;;;5066716;28;20055;-77
2021/10/29 08:56:34;;;;;;;3.97;2.10;;;;;;;;;;5068762;28;20090;-77
2021/10/29 08:59:13;;;;;;;3.47;2.63;;;;;;;;;;5062984;28;20068;-77
2021/10/29 09:02:01;;;;;;;4.30;2.40;;;;;;;;;;5050221;28;20344;-77
2021/10/29 09:04:50;;;;;;;3.67;2.28;;;;;;;;;;5056258;28;20102;-77
2021/10/29 09:07:33;;;;;;;4.25;2.33;;;;;;;;;;5057387;28;20052;-77
2021/10/29 09:10:53;;;;;;;3.70;2.40;;;;;;;;;;5057652;28;20430;-77
2021/10/29 09:32:37;;;;;;;3.30;2.47;;;;;;;;;;5060927;28;20106;-78
2021/10/29 09:35:09;;;;;;;4.05;2.65;;;;;;;;;;5064137;28;20143;-77
2021/10/29 09:37:54;;;;;;;3.85;2.60;;;;;;;;;;5064170;28;20068;-78
2021/10/29 09:40:21;;;;;;;3.95;2.60;;;;;;;;;;5060334;28;20051;-78
2021/10/29 09:42:51;;;;;;;3.50;2.60;;;;;;;;;;5062630;28;20033;-78
2021/10/29 09:45:19;;;;;;;3.67;2.65;;;;;;;;;;5058442;28;20064;-77
2021/10/29 09:47:55;;;;;;;3.63;2.65;;;;;;;;;;5069928;28;20074;-77
2021/10/29 09:50:27;;;;;;;4.80;2.80;;;;;;;;;;5061475;28;20059;-76
2021/10/29 09:55:56;;;;;;;3.95;2.80;;;;;;;;;;5047258;28;20528;-75
2021/10/29 09:58:23;;;;;;;5.53;2.70;;;;;;;;;;5060070;28;20098;-75
2021/10/29 10:00:50;;;;;;;5.88;2.58;;;;;;;;;;5066340;28;20060;-74
2021/10/29 10:03:21;;;;;;;4.68;2.97;;;;;;;;;;5063164;28;20039;-77
2021/10/29 10:05:50;;;;;;;7.50;3.05;;;;;;;;;;5059233;28;20067;-76
2021/10/29 10:08:18;;;;;;;4.90;2.90;;;;;;;;;;5062581;28;20063;-75
2021/10/29 10:10:48;;;;;;;4.45;2.90;;;;;;;;;;5062242;28;20060;-74
2021/10/29 10:13:17;;;;;;;8.05;3.30;;;;;;;;;;5060997;28;20110;-74
2021/10/29 10:15:43;;;;;;;5.78;3.30;;;;;;;;;;5061694;28;20072;-75
2021/10/29 10:18:10;;;;;;;5.32;3.30;;;;;;;;;;5061650;28;20504;-75
2021/10/29 10:20:36;;;;;;;8.05;3.38;;;;;;;;;;5058686;28;21260;-74
2021/10/29 10:23:06;;;;;;;6.03;3.30;;;;;;;;;;5057882;28;20064;-75
2021/10/29 10:42:51;;;;;;;8.50;3.20;;;;;;;;;;5065853;28;20518;-75
2021/10/29 10:45:33;;;;;;;6.50;3.95;;;;;;;;;;5060256;28;20060;-74
2021/10/29 10:48:02;;;;;;;5.18;3.05;;;;;;;;;;5059427;28;20848;-75
2021/10/29 10:50:34;;;;;;;6.47;3.30;;;;;;;;;;5067182;28;20090;-75
2021/10/29 10:53:06;;;;;;;4.82;3.30;;;;;;;;;;5068716;28;20048;-74
2021/10/29 10:58:47;;;;;;;4.20;3.38;;;;;;;;;;5063726;28;25288;-84
2021/10/29 11:09:59;;;;;;;6.40;2.92;;;;;;;;;;5057854;28;20082;-81
2021/10/29 11:12:46;;;;;;;6.05;3.60;;;;;;;;;;5059640;28;20044;-79
2021/10/29 11:15:24;;;;;;;5.03;2.97;;;;;;;;;;5064445;28;20037;-79
2021/10/29 11:17:57;;;;;;;8.70;3.90;;;;;;;;;;5062484;28;20438;-81
2021/10/29 11:20:39;;;;;;;5.68;3.38;;;;;;;;;;5058610;28;20064;-79
2021/10/29 11:23:06;;;;;;;5.65;3.35;;;;;;;;;;5063417;28;20147;-79
2021/10/29 11:25:50;;;;;;;5.00;3.25;;;;;;;;;;5062088;28;20452;-80
2021/10/29 11:28:17;;;;;;;5.57;2.95;;;;;;;;;;5057635;28;20068;-80
2021/10/29 11:30:45;;;;;;;6.07;3.13;;;;;;;;;;5062461;28;20117;-80
2021/10/29 11:33:16;;;;;;;4.65;3.70;;;;;;;;;;5050987;28;20061;-80
2021/10/29 11:35:54;;;;;;;5.20;3.22;;;;;;;;;;5060340;28;20424;-79
2021/10/29 11:38:21;;;;;;;4.93;3.40;;;;;;;;;;5063042;28;20068;-80
2021/10/29 11:40:47;;;;;;;6.25;3.13;;;;;;;;;;5056944;28;20118;-79
2021/10/29 11:43:21;;;;;;;5.25;3.08;;;;;;;;;;5062866;28;20569;-80
2021/10/29 11:45:48;;;;;;;7.53;3.20;;;;;;;;;;5058574;28;20057;-80
2021/10/29 11:48:14;;;;;;;4.18;3.38;;;;;;;;;;5064553;28;20509;-80
2021/10/29 11:50:41;;;;;;;6.30;3.22;;;;;;;;;;5067365;28;20060;-80
2021/10/29 11:53:09;;;;;;;5.43;3.25;;;;;;;;;;5065032;28;20086;-80
2021/10/29 11:55:44;;;;;;;4.20;2.85;;;;;;;;;;5055142;28;20083;-80
2021/10/29 11:58:36;;;;;;;6.90;3.20;;;;;;;;;;5068343;28;20063;-80
2021/10/29 12:09:33;;;;;;;6.15;3.42;;;;;;;;;;5069279;28;20113;-79
2021/10/29 12:12:14;;;;;;;10.82;2.78;;;;;;;;;;5061074;28;20069;-81
2021/10/29 12:14:41;;;;;;;5.37;2.90;;;;;;;;;;5062643;28;20099;-84
2021/10/29 12:17:18;;;;;;;5.15;3.15;;;;;;;;;;5062898;28;20477;-86
2021/10/29 12:19:46;;;;;;;4.90;2.63;;;;;;;;;;5055765;28;20125;-85
2021/10/29 12:24:52;;;;;;;5.45;3.25;;;;;;;;;;5061550;28;20098;-85
2021/10/29 12:27:24;;;;;;;5.70;3.25;;;;;;;;;;5060634;28;20052;-85
2021/10/29 13:03:55;;;;;;;3.97;2.70;;;;;;;;;;5055215;28;20415;-86
2021/10/29 13:06:21;;;;;;;5.28;3.00;;;;;;;;;;5056599;28;20447;-86
2021/10/29 13:08:49;;;;;;;3.67;2.53;;;;;;;;;;5061090;28;20041;-85
2021/10/29 13:11:16;;;;;;;4.43;2.70;;;;;;;;;;5056220;28;20578;-86
2021/10/29 13:13:56;;;;;;;5.40;3.08;;;;;;;;;;5059600;28;20057;-86
2021/10/29 13:16:22;;;;;;;4.03;2.95;;;;;;;;;;5063228;28;20036;-86
2021/10/29 13:19:02;;;;;;;3.13;2.50;;;;;;;;;;5066828;28;20033;-86
2021/10/29 13:35:18;;;;;;;3.83;2.75;;;;;;;;;;5052998;28;21139;-84
2021/10/29 13:38:00;;;;;;;3.83;2.47;;;;;;;;;;5073837;28;20118;-88
2021/10/29 13:51:38;;;;;;;3.92;3.03;;;;;;;;;;5075038;28;20097;-85
2021/10/29 13:54:16;;;;;;;2.92;2.33;;;;;;;;;;5076102;28;20417;-85
2021/10/29 13:59:45;;;;;;;3.20;2.50;;;;;;;;;;5081386;28;20059;-84
2021/10/29 14:29:28;;;;;;;3.50;2.67;;;;;;;;;;5075069;28;20520;-83
2021/10/29 14:31:58;;;;;;;3.45;2.30;;;;;;;;;;5079801;28;20021;-83
2021/10/29 14:37:32;;;;;;;4.25;2.55;;;;;;;;;;5042362;28;20033;-83
2021/10/29 14:40:06;;;;;;;3.53;2.70;;;;;;;;;;5073750;28;20044;-84
2021/10/29 14:42:40;;;;;;;3.45;2.53;;;;;;;;;;5078676;28;20032;-84
2021/10/29 15:25:45;;;;;;;3.35;2.40;;;;;;;;;;5074237;28;20067;-87
2021/10/29 15:30:55;;;;;;;3.50;2.40;;;;;;;;;;5068318;28;20044;-86
2021/10/29 15:41:33;;;;;;;3.20;2.38;;;;;;;;;;5069934;28;20075;-85
2021/10/29 15:51:49;;;;;;;3.88;2.60;;;;;;;;;;5074536;28;20104;-85
2021/10/29 15:54:16;;;;;;;5.18;2.78;;;;;;;;;;5082921;28;20062;-85
2021/10/29 15:56:47;;;;;;;4.35;2.75;;;;;;;;;;5086303;28;20045;-85
2021/10/29 16:18:14;;;;;;;3.45;2.42;;;;;;;;;;5074551;28;20082;-84
2021/10/29 16:20:41;;;;;;;3.55;2.30;;;;;;;;;;5071651;28;20040;-83
2021/10/29 16:23:07;;;;;;;3.15;2.50;;;;;;;;;;5079820;28;20033;-86
2021/10/29 16:25:36;;;;;;;4.38;3.65;;;;;;;;;;5069294;28;20488;-86
2021/10/29 16:28:04;;;;;;;6.70;5.32;;;;;;;;;;5081484;28;20052;-85
2021/10/29 16:30:32;;;;;;;8.65;6.43;;;;;;;;;;5073548;28;20185;-84
2021/10/29 16:35:30;;;;;;;7.97;5.90;;;;;;;;;;5080225;28;20036;-85
2021/10/29 16:37:56;;;;;;;6.68;5.85;;;;;;;;;;5077337;28;20024;-86
2021/10/29 16:40:23;;;;;;;7.13;6.30;;;;;;;;;;5077996;28;20040;-86
2021/10/29 16:42:50;;;;;;;7.50;6.10;;;;;;;;;;5079873;28;20029;-85
2021/10/29 16:45:18;;;;;;;8.15;6.32;;;;;;;;;;5072137;28;20067;-84
2021/10/29 16:47:45;;;;;;;8.63;5.68;;;;;;;;;;5067524;28;20052;-85
2021/10/29 16:50:13;;;;;;;7.15;5.60;;;;;;;;;;5075699;28;20090;-85
2021/10/29 16:52:40;;;;;;;7.97;5.70;;;;;;;;;;5066278;28;20754;-85
2021/10/29 16:55:07;;;;;;;8.10;6.10;;;;;;;;;;5063603;28;20522;-85
2021/10/29 16:57:33;;;;;;;6.43;5.72;;;;;;;;;;5064909;28;20087;-86
2021/10/29 17:00:02;;;;;;;16.05;6.43;;;;;;;;;;5062469;28;20075;-86
2021/10/29 17:02:28;;;;;;;27.75;11.18;;;;;;;;;;5065733;28;20033;-85
2021/10/29 17:04:55;;;;;;;21.55;9.30;;;;;;;;;;5070733;28;20039;-86
2021/10/29 17:07:22;;;;;;;19.15;9.98;;;;;;;;;;5074640;28;20060;-87
2021/10/29 17:09:49;;;;;;;20.02;9.15;;;;;;;;;;5070150;28;20037;-88
2021/10/29 17:12:16;;;;;;;22.63;9.70;;;;;;;;;;5063809;28;20070;-88
2021/10/29 17:14:43;;;;;;;20.45;8.45;;;;;;;;;;5070265;28;20041;-87
2021/10/29 17:17:09;;;;;;;19.17;8.50;;;;;;;;;;5064907;28;20045;-88
2021/10/29 17:19:36;;;;;;;20.00;8.50;;;;;;;;;;5064619;28;20495;-87
2021/10/29 17:22:02;;;;;;;17.25;7.60;;;;;;;;;;5066643;28;20036;-87
2021/10/29 17:24:29;;;;;;;14.70;7.20;;;;;;;;;;5063485;28;20041;-86
2021/10/29 17:26:55;;;;;;;15.73;7.63;;;;;;;;;;5069596;28;20079;-87
2021/10/29 17:29:22;;;;;;;17.75;7.47;;;;;;;;;;5054101;28;20479;-86
2021/10/29 17:31:48;;;;;;;12.52;6.38;;;;;;;;;;5076133;28;20032;-86
2021/10/29 17:34:15;;;;;;;12.15;6.47;;;;;;;;;;5070417;28;20044;-85
2021/10/29 17:36:41;;;;;;;13.50;6.57;;;;;;;;;;5068485;28;20067;-86
2021/10/29 17:39:08;;;;;;;10.30;6.45;;;;;;;;;;5066626;28;20225;-86
2021/10/29 17:41:35;;;;;;;13.40;6.63;;;;;;;;;;5070038;28;20052;-86
2021/10/29 17:44:01;;;;;;;14.82;6.53;;;;;;;;;;5062222;28;20057;-86
2021/10/29 17:46:27;;;;;;;10.57;5.75;;;;;;;;;;5066829;28;20517;-86
2021/10/29 17:48:54;;;;;;;13.75;6.20;;;;;;;;;;5061715;28;20071;-86
2021/10/29 17:51:20;;;;;;;12.13;6.55;;;;;;;;;;5065126;28;20068;-86
2021/10/29 17:53:47;;;;;;;11.48;6.05;;;;;;;;;;5066570;28;20049;-86
2021/10/29 17:56:13;;;;;;;12.88;6.43;;;;;;;;;;5059588;28;20065;-86
2021/10/29 17:58:39;;;;;;;10.82;6.10;;;;;;;;;;5062526;28;21212;-85
2021/10/29 18:01:06;;;;;;;9.73;6.10;;;;;;;;;;5064022;28;20065;-85
2021/10/29 18:03:32;;;;;;;12.13;6.50;;;;;;;;;;5063608;28;20056;-86
2021/10/29 18:05:59;;;;;;;11.50;6.10;;;;;;;;;;5048810;28;20578;-86
2021/10/29 18:08:38;;;;;;;11.65;6.60;;;;;;;;;;5056716;28;20064;-85
2021/10/29 18:11:06;;;;;;;13.52;6.68;;;;;;;;;;5067559;28;20060;-85
2021/10/29 18:13:32;;;;;;;14.35;6.13;;;;;;;;;;5060852;28;20072;-85
2021/10/29 18:15:59;;;;;;;13.30;6.20;;;;;;;;;;5070933;28;20125;-84
2021/10/29 18:18:25;;;;;;;12.88;6.00;;;;;;;;;;5080227;28;20488;-85
2021/10/29 18:20:54;;;;;;;9.93;5.65;;;;;;;;;;5066096;28;20059;-86
2021/10/29 18:23:22;;;;;;;12.27;5.78;;;;;;;;;;5085278;28;20043;-86
2021/10/29 18:25:48;;;;;;;11.52;6.38;;;;;;;;;;5082358;28;20039;-86
2021/10/29 18:28:15;;;;;;;12.20;6.20;;;;;;;;;;5072082;28;20041;-85
2021/10/29 18:30:41;;;;;;;10.68;5.45;;;;;;;;;;5064634;28;20034;-85
2021/10/29 18:33:08;;;;;;;11.00;5.78;;;;;;;;;;5084919;28;20043;-87
2021/10/29 18:35:35;;;;;;;11.43;5.45;;;;;;;;;;5077853;28;20059;-87
2021/10/29 18:38:02;;;;;;;8.80;5.57;;;;;;;;;;5073826;28;20021;-86
2021/10/29 18:40:28;;;;;;;10.02;5.80;;;;;;;;;;5081963;28;20044;-88
2021/10/29 18:42:55;;;;;;;13.35;8.70;;;;;;;;;;5084353;28;20033;-84
2021/10/29 18:45:21;;;;;;;14.73;8.88;;;;;;;;;;5087084;28;20122;-88
2021/10/29 18:47:48;;;;;;;16.08;9.82;;;;;;;;;;5078092;28;20687;-88
2021/10/29 18:50:16;;;;;;;15.77;8.07;;;;;;;;;;5073524;28;20568;-82
2021/10/29 18:52:43;;;;;;;16.85;10.30;;;;;;;;;;5071996;28;20044;-86
2021/10/29 18:55:10;;;;;;;14.93;8.77;;;;;;;;;;5071901;28;20036;-86
2021/10/29 18:57:37;;;;;;;15.65;9.10;;;;;;;;;;5074137;28;20043;-85
2021/10/29 19:00:04;;;;;;;15.90;9.30;;;;;;;;;;5072938;28;20142;-85
2021/10/29 19:02:31;;;;;;;15.38;9.10;;;;;;;;;;5084448;28;20032;-85
2021/10/29 19:04:57;;;;;;;15.70;9.07;;;;;;;;;;5082663;28;20040;-86
2021/10/29 19:07:25;;;;;;;16.20;9.30;;;;;;;;;;5071302;28;20037;-85
2021/10/29 19:09:51;;;;;;;16.63;9.00;;;;;;;;;;5075581;28;20028;-86
2021/10/29 19:12:18;;;;;;;15.63;9.23;;;;;;;;;;5067085;28;20052;-87
2021/10/29 19:14:45;;;;;;;7.80;4.85;;;;;;;;;;5068783;28;20036;-85
2021/10/29 19:17:11;;;;;;;6.82;3.92;;;;;;;;;;5083583;28;20028;-85
2021/10/29 19:19:38;;;;;;;7.28;4.00;;;;;;;;;;5087551;28;20033;-87
2021/10/29 19:22:05;;;;;;;5.70;3.50;;;;;;;;;;5082005;28;20036;-85
2021/10/29 19:24:31;;;;;;;5.80;3.88;;;;;;;;;;5076471;28;20039;-85
2021/10/29 19:26:58;;;;;;;7.32;4.10;;;;;;;;;;5069055;28;20592;-85
2021/10/29 19:29:24;;;;;;;9.60;4.57;;;;;;;;;;5076607;28;20036;-85
2021/10/29 19:31:52;;;;;;;7.97;4.63;;;;;;;;;;5067496;28;20033;-85
2021/10/29 19:34:25;;;;;;;6.43;4.38;;;;;;;;;;5064062;28;20400;-85
2021/10/29 19:37:04;;;;;;;7.22;3.67;;;;;;;;;;5077611;28;20033;-85